Time;durP1;ratioP1;P1;durP2;ratioP2;P2;SDS_P1;SDS_P2;PMS_P1;PMS_P2;Temp;Humidity;BMP_temperature;BMP_pressure;BME280_temperature;BME280_humidity;BME280_pressure;Samples;Min_cycle;Max_cycle;Signal;HPM_P1;HPM_P2
2022/03/30 00:02:09;;;;;;;7.30;2.17;;;;;;;4.31;51.83;100602.13;4961740;28;108188;-48
2022/03/30 00:04:36;;;;;;;2.17;1.93;;;;;;;4.32;51.96;100608.34;4960761;28;98417;-48
2022/03/30 00:07:02;;;;;;;3.80;2.43;;;;;;;4.29;51.87;100609.25;4958589;28;96946;-47
2022/03/30 00:09:28;;;;;;;3.27;2.23;;;;;;;4.24;51.82;100598.94;4959490;28;96961;-48
2022/03/30 00:11:53;;;;;;;2.77;1.90;;;;;;;4.16;52.07;100595.75;4954952;28;120713;-48
2022/03/30 00:14:19;;;;;;;2.63;2.30;;;;;;;4.13;52.05;100593.91;4960169;28;97065;-47
2022/03/30 00:16:45;;;;;;;3.00;2.37;;;;;;;4.12;52.45;100595.13;4961693;28;97130;-48
2022/03/30 00:19:10;;;;;;;2.73;2.40;;;;;;;4.13;52.29;100596.63;4956546;28;97080;-47
2022/03/30 00:21:36;;;;;;;8.53;3.50;;;;;;;4.10;52.27;100588.63;4962835;28;123813;-48
2022/03/30 00:24:01;;;;;;;11.80;5.73;;;;;;;4.06;52.38;100596.94;4960617;28;96908;-48
2022/03/30 00:26:26;;;;;;;7.50;5.23;;;;;;;4.04;52.46;100598.59;4958786;28;97012;-47
2022/03/30 00:28:52;;;;;;;13.93;4.80;;;;;;;4.05;52.61;100600.09;4959345;28;97328;-48
2022/03/30 00:31:18;;;;;;;11.87;5.20;;;;;;;4.04;52.55;100598.59;4960166;28;97372;-48
2022/03/30 00:33:44;;;;;;;14.57;4.77;;;;;;;4.03;52.34;100591.63;4960483;28;97598;-48
2022/03/30 00:36:09;;;;;;;9.37;4.10;;;;;;;3.98;52.46;100589.47;4959840;28;97078;-48
2022/03/30 00:38:35;;;;;;;5.50;3.70;;;;;;;3.94;52.42;100592.34;4963456;28;97095;-47
2022/03/30 00:41:01;;;;;;;7.93;3.57;;;;;;;3.90;52.26;100583.56;4961905;28;98502;-48
2022/03/30 00:43:26;;;;;;;6.07;3.10;;;;;;;3.88;52.56;100571.59;4960354;28;97068;-48
2022/03/30 00:45:51;;;;;;;4.40;2.67;;;;;;;3.88;52.32;100575.09;4964451;28;96990;-48
2022/03/30 00:48:17;;;;;;;7.50;2.43;;;;;;;3.86;52.57;100568.56;4951375;28;96966;-47
2022/03/30 00:50:42;;;;;;;2.70;2.13;;;;;;;3.82;52.80;100568.72;4957734;28;115468;-47
2022/03/30 00:53:07;;;;;;;4.67;2.50;;;;;;;3.74;52.66;100576.38;4953396;28;113124;-48
2022/03/30 00:55:34;;;;;;;4.60;2.10;;;;;;;3.72;52.66;100578.03;4959692;28;97247;-48
2022/03/30 00:58:00;;;;;;;4.77;2.20;;;;;;;3.73;52.64;100576.84;4960647;28;97239;-47
2022/03/30 01:00:26;;;;;;;3.00;2.23;;;;;;;3.70;52.61;100575.00;4959519;28;97558;-47
2022/03/30 01:02:52;;;;;;;3.23;1.93;;;;;;;3.66;52.60;100567.00;4960247;28;97763;-48
2022/03/30 01:05:18;;;;;;;3.27;2.10;;;;;;;3.60;52.83;100571.47;4957944;28;97458;-47
2022/03/30 01:07:45;;;;;;;2.23;2.10;;;;;;;3.58;52.84;100567.72;4957179;28;97015;-48
2022/03/30 01:10:12;;;;;;;3.87;1.80;;;;;;;3.56;52.82;100564.69;4953570;28;98395;-48
2022/03/30 01:12:39;;;;;;;6.13;2.83;;;;;;;3.55;52.93;100563.91;4952607;28;100318;-48
2022/03/30 01:15:08;;;;;;;1.90;1.80;;;;;;;3.56;52.89;100564.69;4954562;28;96908;-48
2022/03/30 01:17:34;;;;;;;6.40;2.17;;;;;;;3.54;52.80;100558.91;4956069;28;97017;-47
2022/03/30 01:19:59;;;;;;;6.73;2.57;;;;;;;3.55;52.60;100558.47;4956619;28;97434;-48
2022/03/30 01:22:24;;;;;;;4.63;2.40;;;;;;;3.50;52.67;100561.00;4960804;28;97200;-48
2022/03/30 01:24:50;;;;;;;5.80;2.47;;;;;;;3.42;52.89;100552.38;4959908;28;115949;-47
2022/03/30 01:27:15;;;;;;;6.83;2.50;;;;;;;3.41;52.74;100544.63;4959393;28;97294;-48
2022/03/30 01:32:27;;;;;;;4.50;2.17;;;;;;;3.33;52.79;100546.88;4953098;28;96951;-48
2022/03/30 01:35:00;;;;;;;2.30;2.10;;;;;;;3.35;53.31;100540.97;4954286;28;98532;-48
2022/03/30 01:37:28;;;;;;;6.83;2.13;;;;;;;3.32;53.01;100539.91;4956962;28;98130;-47
2022/03/30 01:39:56;;;;;;;2.83;1.70;;;;;;;3.31;53.20;100526.78;4954977;28;97461;-47
2022/03/30 01:42:22;;;;;;;2.17;1.77;;;;;;;3.30;52.93;100528.00;4957864;28;98419;-48
2022/03/30 01:44:49;;;;;;;3.10;1.77;;;;;;;3.29;52.95;100521.78;4959522;28;96998;-48
2022/03/30 01:47:14;;;;;;;9.10;2.20;;;;;;;3.24;52.91;100516.91;4957402;28;97032;-48
2022/03/30 01:49:40;;;;;;;3.37;1.70;;;;;;;3.22;53.25;100518.56;4958535;28;103199;-47
2022/03/30 01:52:07;;;;;;;1.77;1.60;;;;;;;3.23;53.10;100517.38;4953294;28;97339;-47
2022/03/30 01:54:35;;;;;;;1.90;1.80;;;;;;;3.28;53.25;100516.78;4949329;28;96946;-48
2022/03/30 01:57:01;;;;;;;2.53;1.37;;;;;;;3.33;53.24;100513.50;4947231;28;97449;-48
2022/03/30 01:59:27;;;;;;;1.60;1.40;;;;;;;3.37;52.98;100514.09;4951495;28;96729;-48
2022/03/30 02:01:52;;;;;;;3.80;1.40;;;;;;;3.40;53.27;100513.22;4958802;28;97587;-48
2022/03/30 02:04:18;;;;;;;2.57;1.57;;;;;;;3.40;53.06;100513.22;4954959;28;96829;-48
2022/03/30 02:06:43;;;;;;;2.27;1.97;;;;;;;3.37;53.05;100516.81;4960575;28;96863;-48
2022/03/30 02:09:12;;;;;;;1.53;1.30;;;;;;;3.33;53.20;100508.81;4958065;28;97823;-48
2022/03/30 02:11:38;;;;;;;2.50;1.83;;;;;;;3.34;53.34;100521.19;4958825;28;97385;-48
2022/03/30 02:14:04;;;;;;;2.60;1.50;;;;;;;3.39;53.35;100503.53;4956489;28;96715;-47
2022/03/30 02:16:29;;;;;;;2.80;2.00;;;;;;;3.43;53.40;100506.91;4953533;28;97000;-47
2022/03/30 02:18:54;;;;;;;2.73;1.53;;;;;;;3.47;53.50;100504.81;4951983;28;97142;-48
2022/03/30 02:21:20;;;;;;;3.67;1.60;;;;;;;3.49;53.42;100494.25;4956203;28;96855;-48
2022/03/30 02:23:46;;;;;;;3.13;1.67;;;;;;;3.53;53.52;100492.13;4954654;28;97098;-48
2022/03/30 02:26:13;;;;;;;7.30;2.10;;;;;;;3.55;53.41;100497.88;4958694;28;96992;-47
2022/03/30 02:28:39;;;;;;;3.07;1.93;;;;;;;3.56;53.49;100489.25;4958849;28;97057;-47
2022/03/30 02:31:05;;;;;;;1.83;1.67;;;;;;;3.57;53.50;100485.34;4957700;28;97692;-48
2022/03/30 02:33:30;;;;;;;4.10;1.80;;;;;;;3.57;53.46;100479.16;4958112;28;97235;-48
2022/03/30 02:35:56;;;;;;;3.60;2.27;;;;;;;3.56;53.49;100472.94;4955343;28;112044;-47
2022/03/30 02:38:21;;;;;;;3.00;1.97;;;;;;;3.58;53.40;100472.53;4955081;28;97465;-47
2022/03/30 02:40:46;;;;;;;3.53;1.90;;;;;;;3.57;53.36;100468.28;4952152;28;97315;-48
2022/03/30 02:43:16;;;;;;;2.87;1.97;;;;;;;3.56;53.62;100477.66;4953309;28;98128;-47
2022/03/30 02:45:41;;;;;;;2.30;1.77;;;;;;;3.58;53.44;100469.78;4957329;28;96851;-47
2022/03/30 02:48:19;;;;;;;3.77;2.30;;;;;;;3.58;53.40;100469.78;4955588;28;97057;-47
2022/03/30 02:50:53;;;;;;;1.80;1.70;;;;;;;3.57;53.72;100466.31;4956848;28;100711;-48
2022/03/30 02:53:19;;;;;;;2.03;1.37;;;;;;;3.58;53.50;100458.91;4955533;28;97449;-48
2022/03/30 02:55:45;;;;;;;4.40;1.80;;;;;;;3.55;53.40;100462.53;4956630;28;96984;-49
2022/03/30 02:58:11;;;;;;;3.30;1.70;;;;;;;3.54;53.53;100461.00;4957216;28;106040;-47
2022/03/30 03:00:38;;;;;;;2.73;1.93;;;;;;;3.53;53.45;100462.22;4957076;28;98475;-47
2022/03/30 03:03:03;;;;;;;2.90;2.37;;;;;;;3.54;53.45;100461.75;4959157;28;97274;-47
2022/03/30 03:05:32;;;;;;;3.00;1.70;;;;;;;3.55;53.62;100462.53;4951747;28;97301;-48
2022/03/30 03:07:59;;;;;;;5.10;2.30;;;;;;;3.56;53.56;100470.22;4954058;28;97846;-47
2022/03/30 03:10:25;;;;;;;3.40;2.23;;;;;;;3.54;53.46;100471.88;4960384;28;97279;-48
2022/03/30 03:12:51;;;;;;;2.97;2.03;;;;;;;3.53;53.41;100460.25;4962061;28;96725;-47
2022/03/30 03:15:16;;;;;;;5.30;2.20;;;;;;;3.52;53.48;100461.47;4958409;28;97091;-48
2022/03/30 03:17:42;;;;;;;2.97;2.20;;;;;;;3.46;53.80;100454.34;4959733;28;97824;-48
2022/03/30 03:20:07;;;;;;;3.30;1.97;;;;;;;3.42;53.84;100454.47;4960219;28;126703;-48
2022/03/30 03:22:33;;;;;;;3.67;1.80;;;;;;;3.40;53.77;100453.41;4961687;28;97342;-48
2022/03/30 03:24:58;;;;;;;4.10;2.17;;;;;;;3.33;53.95;100456.41;4959768;28;118662;-47
2022/03/30 03:27:23;;;;;;;2.93;2.17;;;;;;;3.30;53.92;100460.75;4959370;28;103910;-48
2022/03/30 03:29:48;;;;;;;2.30;1.80;;;;;;;3.33;53.92;100450.97;4959814;28;125313;-48
2022/03/30 03:32:15;;;;;;;2.70;2.23;;;;;;;3.35;53.79;100445.84;4961213;28;117211;-48
2022/03/30 03:34:40;;;;;;;2.97;2.40;;;;;;;3.37;53.96;100446.13;4957287;28;97030;-47
2022/03/30 03:37:05;;;;;;;3.53;2.00;;;;;;;3.34;53.84;100449.78;4963356;28;98568;-48
2022/03/30 03:39:30;;;;;;;1.90;1.80;;;;;;;3.32;53.94;100446.75;4961355;28;104034;-48
2022/03/30 03:41:56;;;;;;;6.67;2.40;;;;;;;3.27;54.04;100450.03;4959784;28;112193;-48
2022/03/30 03:44:21;;;;;;;4.30;2.20;;;;;;;3.28;54.22;100435.22;4962952;28;97021;-45
2022/03/30 03:46:46;;;;;;;3.47;1.70;;;;;;;3.25;53.92;100430.69;4958584;28;112789;-45
2022/03/30 03:49:12;;;;;;;2.93;2.30;;;;;;;3.25;54.18;100431.47;4959625;28;121257;-45
2022/03/30 03:51:37;;;;;;;4.53;2.43;;;;;;;3.25;53.99;100436.91;4958199;28;97542;-48
2022/03/30 03:54:02;;;;;;;2.73;2.53;;;;;;;3.23;53.96;100433.88;4958809;28;97558;-47
2022/03/30 03:56:28;;;;;;;16.60;2.70;;;;;;;3.22;53.81;100426.91;4959775;28;96804;-47
2022/03/30 03:58:53;;;;;;;3.77;2.40;;;;;;;3.19;53.80;100427.06;4955526;28;127870;-47
2022/03/30 04:01:18;;;;;;;4.40;2.33;;;;;;;3.16;53.95;100423.25;4963513;28;117067;-46
2022/03/30 04:03:43;;;;;;;4.17;2.23;;;;;;;3.14;54.05;100422.97;4960233;28;108890;-47
2022/03/30 04:06:09;;;;;;;4.50;2.00;;;;;;;3.12;54.09;100419.94;4961036;28;128237;-47
2022/03/30 04:08:35;;;;;;;3.23;2.10;;;;;;;3.13;54.18;100424.16;4959974;28;96979;-47
2022/03/30 04:11:01;;;;;;;2.77;1.93;;;;;;;3.07;54.00;100420.50;4956653;28;97127;-47
2022/03/30 04:13:26;;;;;;;4.17;1.80;;;;;;;3.02;54.04;100421.84;4961889;28;97824;-47
2022/03/30 04:15:52;;;;;;;5.23;2.73;;;;;;;3.03;54.10;100419.88;5002143;22;97684;-53
2022/03/30 04:18:17;;;;;;;4.00;1.97;;;;;;;3.01;54.25;100423.03;5003831;27;97146;-53
2022/03/30 04:20:43;;;;;;;1.97;1.50;;;;;;;2.97;54.24;100421.69;5005513;28;97265;-52
2022/03/30 04:23:09;;;;;;;2.90;1.80;;;;;;;2.96;54.21;100420.91;5007148;28;97798;-52
2022/03/30 04:25:34;;;;;;;3.50;2.10;;;;;;;2.96;54.12;100415.47;4998080;27;97417;-53
2022/03/30 04:28:00;;;;;;;2.80;1.77;;;;;;;2.97;54.31;100419.69;4986455;28;111441;-53
2022/03/30 04:30:25;;;;;;;2.60;1.50;;;;;;;2.98;54.07;100413.06;4990999;28;98288;-54
2022/03/30 04:32:51;;;;;;;1.73;1.60;;;;;;;3.04;53.99;100414.00;4986169;28;97073;-53
2022/03/30 04:35:18;;;;;;;3.07;1.97;;;;;;;3.03;54.02;100404.34;4987302;28;96771;-53
2022/03/30 04:37:43;;;;;;;2.33;1.43;;;;;;;3.03;54.14;100409.03;4979812;28;100121;-56
2022/03/30 04:40:09;;;;;;;6.90;1.83;;;;;;;2.98;54.10;100396.78;4986616;28;109572;-53
2022/03/30 04:42:35;;;;;;;2.43;1.77;;;;;;;2.91;54.42;100397.03;4987271;28;97888;-53
2022/03/30 04:45:00;;;;;;;1.93;1.73;;;;;;;2.94;54.22;100390.72;4986235;28;97259;-53
2022/03/30 04:47:26;;;;;;;2.67;1.50;;;;;;;2.91;54.44;100393.56;4984965;28;98427;-54
2022/03/30 04:49:52;;;;;;;2.90;1.63;;;;;;;2.93;54.29;100397.34;4985480;28;96778;-53
2022/03/30 04:52:18;;;;;;;3.07;1.60;;;;;;;2.97;54.55;100394.50;4985536;28;97391;-53
2022/03/30 04:54:44;;;;;;;2.53;1.53;;;;;;;3.02;54.52;100396.63;4983707;28;98701;-54
2022/03/30 04:57:09;;;;;;;2.47;1.90;;;;;;;3.07;54.40;100385.19;4986588;28;98556;-53
2022/03/30 04:59:34;;;;;;;1.73;1.63;;;;;;;3.09;54.22;100384.72;4986763;28;97189;-53
2022/03/30 05:02:00;;;;;;;4.13;1.73;;;;;;;3.05;54.30;100390.31;4987956;28;117927;-54
2022/03/30 05:04:25;;;;;;;2.70;1.80;;;;;;;3.04;54.09;100399.66;4988765;28;97114;-53
2022/03/30 05:06:51;;;;;;;2.53;1.80;;;;;;;3.07;54.21;100393.31;4987828;28;97039;-53
2022/03/30 05:09:16;;;;;;;2.03;1.93;;;;;;;3.08;54.23;100394.81;4982435;28;97070;-53
2022/03/30 05:11:42;;;;;;;3.30;2.17;;;;;;;3.09;54.21;100396.34;4990640;28;97262;-54
2022/03/30 05:14:07;;;;;;;7.67;2.40;;;;;;;3.06;54.32;100399.22;4988836;28;97234;-53
2022/03/30 05:16:34;;;;;;;2.30;2.10;;;;;;;3.06;54.20;100391.81;4985946;28;97650;-54
2022/03/30 05:19:00;;;;;;;3.03;2.00;;;;;;;3.10;54.51;100383.53;4984930;28;96802;-53
2022/03/30 05:21:25;;;;;;;3.87;2.23;;;;;;;3.09;54.37;100390.16;4986133;28;97269;-53
2022/03/30 05:23:50;;;;;;;6.53;2.10;;;;;;;3.05;54.36;100393.03;4988563;28;96930;-53
2022/03/30 05:26:16;;;;;;;7.57;2.40;;;;;;;3.02;54.53;100394.66;4989013;28;96737;-54
2022/03/30 05:28:42;;;;;;;6.40;2.17;;;;;;;3.00;54.49;100391.66;4983088;28;102176;-53
2022/03/30 05:31:07;;;;;;;5.33;2.27;;;;;;;2.98;54.46;100390.56;4987472;28;97452;-53
2022/03/30 05:33:33;;;;;;;4.70;2.37;;;;;;;3.01;54.83;100382.28;4983818;28;97693;-54
2022/03/30 05:35:58;;;;;;;3.23;2.20;;;;;;;3.10;54.67;100373.44;4985418;28;96826;-54
2022/03/30 05:38:24;;;;;;;2.60;1.83;;;;;;;3.14;54.98;100374.03;4986762;28;113768;-53
2022/03/30 05:40:50;;;;;;;3.83;1.80;;;;;;;3.14;54.75;100382.19;4985764;28;96892;-54
2022/03/30 05:43:17;;;;;;;1.93;1.80;;;;;;;3.15;54.66;100383.69;4987699;28;96917;-53
2022/03/30 05:45:42;;;;;;;6.13;2.13;;;;;;;3.21;54.76;100381.88;4986465;28;97955;-52
2022/03/30 05:48:09;;;;;;;2.50;1.90;;;;;;;3.29;54.54;100380.44;4985954;28;97339;-53
2022/03/30 05:50:34;;;;;;;3.90;2.20;;;;;;;3.35;54.58;100386.03;4986894;28;97176;-54
2022/03/30 05:52:59;;;;;;;2.60;2.00;;;;;;;3.40;54.44;100382.72;4981187;28;100695;-53
2022/03/30 05:55:25;;;;;;;3.57;2.10;;;;;;;3.45;54.62;100390.28;4984490;28;96902;-53
2022/03/30 05:57:51;;;;;;;2.20;1.70;;;;;;;3.47;54.50;100382.44;4986302;28;97179;-53
2022/03/30 06:00:16;;;;;;;5.17;2.40;;;;;;;3.48;54.51;100381.22;4985073;28;97017;-53
2022/03/30 06:02:42;;;;;;;5.03;2.07;;;;;;;3.51;54.65;100383.06;4987092;28;97288;-54
2022/03/30 06:05:07;;;;;;;5.33;1.77;;;;;;;3.57;54.61;100383.97;4988603;28;98066;-52
2022/03/30 06:07:33;;;;;;;2.77;1.77;;;;;;;3.64;54.61;100392.59;4980150;28;96747;-53
2022/03/30 06:09:59;;;;;;;5.43;2.20;;;;;;;3.72;54.59;100393.06;4988873;28;96968;-53
2022/03/30 06:12:25;;;;;;;3.30;2.10;;;;;;;3.81;54.58;100398.50;4979806;28;97340;-53
2022/03/30 06:14:51;;;;;;;4.00;2.13;;;;;;;3.90;54.69;100392.31;4984565;28;98342;-52
2022/03/30 06:17:18;;;;;;;3.83;2.00;;;;;;;3.97;54.70;100403.69;4983205;28;97011;-52
2022/03/30 06:19:50;;;;;;;5.20;2.67;;;;;;;4.02;54.63;100407.75;4985677;28;96871;-53
2022/03/30 06:22:16;;;;;;;10.20;2.90;;;;;;;4.09;54.51;100404.72;4984886;28;97646;-53
2022/03/30 06:24:45;;;;;;;2.70;2.30;;;;;;;4.15;54.49;100406.38;4988685;28;97759;-52
2022/03/30 06:27:12;;;;;;;7.50;3.30;;;;;;;4.21;54.56;100404.59;4981064;28;97449;-53
2022/03/30 06:29:40;;;;;;;4.03;2.80;;;;;;;4.30;54.63;100412.00;4986571;28;98211;-52
2022/03/30 06:32:07;;;;;;;7.83;2.83;;;;;;;4.39;54.43;100412.72;4985675;28;97956;-53
2022/03/30 06:34:33;;;;;;;4.97;2.80;;;;;;;4.46;54.48;100414.38;4986341;28;97344;-53
2022/03/30 06:36:59;;;;;;;2.50;2.30;;;;;;;4.50;54.46;100420.44;4988345;28;97491;-53
2022/03/30 06:39:24;;;;;;;2.47;2.27;;;;;;;4.50;54.52;100406.81;4989806;28;96994;-53
2022/03/30 06:41:50;;;;;;;3.17;1.90;;;;;;;4.55;54.62;100409.69;4985564;28;96955;-52
2022/03/30 06:44:17;;;;;;;7.53;2.63;;;;;;;4.60;54.92;100407.56;4985501;28;97309;-55
2022/03/30 06:46:43;;;;;;;7.63;2.37;;;;;;;4.67;54.72;100407.25;4986384;28;97017;-53
2022/03/30 06:49:11;;;;;;;2.40;2.20;;;;;;;4.73;54.92;100397.25;4988451;28;96828;-54
2022/03/30 06:51:37;;;;;;;1.40;1.30;;;;;;;4.82;54.90;100400.72;4989706;28;98565;-53
2022/03/30 06:54:03;;;;;;;3.90;2.20;;;;;;;4.93;54.69;100400.97;4988497;28;97474;-54
2022/03/30 06:56:29;;;;;;;4.73;2.10;;;;;;;5.06;54.98;100400.78;4989898;28;96976;-53
2022/03/30 06:58:54;;;;;;;3.63;2.00;;;;;;;5.20;54.86;100397.38;4987120;28;97521;-53
2022/03/30 07:01:20;;;;;;;6.60;2.57;;;;;;;5.31;54.71;100400.34;4989326;28;97436;-53
2022/03/30 07:03:46;;;;;;;4.87;2.20;;;;;;;5.41;54.59;100399.13;4989218;28;97774;-54
2022/03/30 07:06:12;;;;;;;3.20;2.27;;;;;;;5.44;54.76;100383.81;4985282;28;97383;-56
2022/03/30 07:11:28;;;;;;;2.20;2.00;;;;;;;5.49;54.65;100392.09;4971842;28;100592;-55
2022/03/30 07:13:56;;;;;;;2.60;1.93;;;;;;;5.55;55.03;100382.03;4989209;28;97258;-53
2022/03/30 07:16:23;;;;;;;5.83;2.20;;;;;;;5.65;54.72;100383.50;4989558;28;96873;-54
2022/03/30 07:18:49;;;;;;;3.07;1.93;;;;;;;5.81;55.16;100382.34;4989694;28;97034;-53
2022/03/30 07:21:15;;;;;;;5.70;2.30;;;;;;;5.91;55.17;100386.53;4984239;28;98270;-54
2022/03/30 07:23:40;;;;;;;4.70;2.30;;;;;;;5.96;54.99;100385.91;4985379;28;97008;-53
2022/03/30 07:26:06;;;;;;;2.60;2.07;;;;;;;6.00;54.86;100387.25;4986854;28;96444;-54
2022/03/30 07:28:31;;;;;;;3.03;2.50;;;;;;;6.05;54.89;100392.03;4989948;28;97206;-54
2022/03/30 07:30:57;;;;;;;3.40;2.00;;;;;;;5.98;54.75;100389.66;4986769;28;96942;-53
2022/03/30 07:33:25;;;;;;;4.87;2.50;;;;;;;5.95;55.14;100390.63;4986289;28;97014;-52
2022/03/30 07:35:51;;;;;;;6.40;2.20;;;;;;;6.03;55.03;100386.28;4984817;28;96715;-53
2022/03/30 07:38:18;;;;;;;2.10;1.80;;;;;;;6.15;55.19;100386.50;4987606;28;97424;-53
2022/03/30 07:40:48;;;;;;;3.17;2.10;;;;;;;6.28;54.83;100395.19;4990973;28;97459;-53
2022/03/30 07:43:15;;;;;;;5.53;2.43;;;;;;;6.39;55.04;100387.97;4986114;28;96798;-52
2022/03/30 07:45:41;;;;;;;4.30;2.60;;;;;;;6.57;55.16;100387.81;4983182;28;96776;-52
2022/03/30 07:48:08;;;;;;;4.83;2.27;;;;;;;6.71;54.61;100383.53;4990319;28;96741;-54
2022/03/30 07:50:34;;;;;;;4.60;2.20;;;;;;;6.89;54.73;100377.13;4989013;28;97617;-52
2022/03/30 07:53:00;;;;;;;2.00;1.90;;;;;;;6.97;54.49;100373.53;4988016;28;96971;-54
2022/03/30 07:55:26;;;;;;;1.97;1.80;;;;;;;7.20;54.84;100371.88;4988263;28;97079;-53
2022/03/30 07:57:51;;;;;;;3.67;1.57;;;;;;;7.32;54.06;100374.28;4984547;28;97180;-53
2022/03/30 08:00:18;;;;;;;3.43;1.70;;;;;;;7.39;54.31;100367.66;4989495;28;127015;-53
2022/03/30 08:02:45;;;;;;;3.40;1.70;;;;;;;7.58;54.44;100372.41;4988823;28;97025;-53
2022/03/30 08:05:12;;;;;;;5.93;1.90;;;;;;;7.74;54.28;100365.66;4986839;28;96697;-53
2022/03/30 08:07:39;;;;;;;2.47;1.20;;;;;;;7.87;54.09;100370.78;4987632;28;96985;-54
2022/03/30 08:10:05;;;;;;;7.13;1.60;;;;;;;7.93;54.01;100369.59;4986623;28;97382;-53
2022/03/30 08:12:31;;;;;;;3.20;1.80;;;;;;;8.00;53.57;100365.69;4988620;28;96887;-54
2022/03/30 08:14:56;;;;;;;5.33;2.10;;;;;;;8.04;53.68;100375.22;4988103;28;97053;-54
2022/03/30 08:17:22;;;;;;;5.03;1.70;;;;;;;8.12;53.60;100375.56;4988577;28;97192;-53
2022/03/30 08:19:47;;;;;;;2.33;1.83;;;;;;;8.18;53.33;100373.63;4989526;28;98594;-54
2022/03/30 08:22:28;;;;;;;2.57;1.60;;;;;;;8.17;53.39;100363.88;4990769;28;96834;-53
2022/03/30 08:25:10;;;;;;;9.40;1.90;;;;;;;8.14;53.72;100368.38;4984436;28;97259;-54
2022/03/30 08:27:36;;;;;;;4.67;1.73;;;;;;;8.09;53.48;100371.03;4985111;28;97702;-54
2022/03/30 08:30:03;;;;;;;5.23;1.57;;;;;;;8.08;53.67;100373.00;4989337;28;96894;-54
2022/03/30 08:32:29;;;;;;;4.73;1.80;;;;;;;8.04;53.66;100367.00;4982797;28;99209;-54
2022/03/30 08:34:55;;;;;;;3.27;1.43;;;;;;;8.06;53.44;100372.75;4986577;28;109742;-53
2022/03/30 08:37:21;;;;;;;3.77;1.40;;;;;;;8.06;53.50;100374.75;4989315;28;96885;-54
2022/03/30 08:39:48;;;;;;;4.40;1.70;;;;;;;7.99;53.81;100372.41;4985316;28;98181;-54
2022/03/30 08:42:15;;;;;;;8.20;2.20;;;;;;;7.96;53.97;100379.59;4988038;28;98512;-55
2022/03/30 08:44:41;;;;;;;4.83;1.60;;;;;;;7.97;53.96;100366.69;4986274;28;96712;-52
2022/03/30 08:47:08;;;;;;;3.20;1.40;;;;;;;8.02;54.19;100371.44;4986152;28;96845;-54
2022/03/30 08:49:35;;;;;;;4.93;1.63;;;;;;;8.06;53.86;100377.50;5000180;28;97832;-54
2022/03/30 08:52:07;;;;;;;6.33;1.40;;;;;;;8.13;54.06;100377.03;4985156;28;97761;-54
2022/03/30 08:54:33;;;;;;;4.03;1.30;;;;;;;8.14;53.93;100376.59;4984578;28;96953;-54
2022/03/30 08:56:59;;;;;;;2.30;1.43;;;;;;;8.23;54.11;100375.69;4986104;28;97737;-55
2022/03/30 08:59:25;;;;;;;4.50;1.80;;;;;;;8.24;53.86;100377.16;4988078;28;98762;-54
2022/03/30 09:01:54;;;;;;;5.40;1.37;;;;;;;8.33;54.18;100379.78;4983657;28;110700;-54
2022/03/30 09:04:20;;;;;;;6.87;2.10;;;;;;;8.42;53.72;100370.66;4985713;28;96966;-53
2022/03/30 09:06:50;;;;;;;5.97;1.57;;;;;;;8.56;53.73;100369.81;4986741;28;96787;-54
2022/03/30 09:09:26;;;;;;;4.13;1.50;;;;;;;8.75;53.48;100370.97;4988330;28;97372;-54
2022/03/30 09:11:55;;;;;;;3.30;1.53;;;;;;;8.91;53.68;100367.59;4985100;28;97290;-54
2022/03/30 09:14:23;;;;;;;5.00;1.80;;;;;;;9.12;53.22;100365.50;4985299;28;96851;-53
2022/03/30 09:16:51;;;;;;;2.30;1.47;;;;;;;9.29;53.24;100361.63;4985998;28;97242;-54
2022/03/30 09:19:20;;;;;;;4.63;1.43;;;;;;;9.44;52.91;100358.69;4984863;28;97611;-52
2022/03/30 09:21:59;;;;;;;3.03;1.47;;;;;;;9.55;52.70;100361.50;4985390;28;101522;-54
2022/03/30 09:24:31;;;;;;;2.73;1.03;;;;;;;9.57;52.21;100359.00;4985331;28;96837;-55
2022/03/30 09:26:58;;;;;;;4.00;1.00;;;;;;;9.65;52.36;100360.06;4984309;28;98685;-54
2022/03/30 09:29:27;;;;;;;1.50;0.90;;;;;;;9.67;51.73;100369.31;4985566;28;97319;-54
2022/03/30 09:31:52;;;;;;;2.73;1.20;;;;;;;9.69;52.21;100366.06;4989150;28;101998;-54
2022/03/30 09:34:19;;;;;;;4.43;1.50;;;;;;;9.81;52.04;100364.88;4985948;28;116872;-53
2022/03/30 09:36:46;;;;;;;3.10;1.20;;;;;;;9.89;52.00;100357.69;4986910;28;97022;-54
2022/03/30 09:39:32;;;;;;;3.90;1.20;;;;;;;9.86;51.23;100360.66;4989479;28;96875;-54
2022/03/30 09:41:59;;;;;;;6.10;1.07;;;;;;;9.72;51.64;100363.09;4986006;28;99324;-54
2022/03/30 09:44:29;;;;;;;1.40;0.70;;;;;;;9.71;50.88;100363.59;4988616;28;97245;-54
2022/03/30 09:47:05;;;;;;;3.97;0.60;;;;;;;9.75;51.24;100347.63;4986012;28;97189;-55
2022/03/30 09:49:40;;;;;;;7.87;0.90;;;;;;;9.90;51.32;100358.41;4988065;28;97952;-53
2022/03/30 09:52:12;;;;;;;4.13;1.13;;;;;;;10.07;50.47;100353.75;4986208;28;98419;-53
2022/03/30 09:54:42;;;;;;;3.73;0.80;;;;;;;10.09;50.64;100351.25;4985316;28;97223;-54
2022/03/30 09:57:13;;;;;;;7.80;1.00;;;;;;;10.21;50.85;100348.03;4984835;28;96846;-53
2022/03/30 10:00:07;;;;;;;1.83;0.77;;;;;;;10.45;49.99;100356.59;4985061;28;98609;-54
2022/03/30 10:02:41;;;;;;;2.13;0.80;;;;;;;10.49;50.21;100345.31;4987646;28;100223;-52
2022/03/30 10:05:09;;;;;;;1.10;0.77;;;;;;;10.62;50.35;100337.34;4987370;28;97103;-52
2022/03/30 10:07:34;;;;;;;6.30;0.80;;;;;;;10.79;50.32;100337.34;4993435;28;97096;-52
2022/03/30 10:10:00;;;;;;;4.20;0.80;;;;;;;10.93;50.26;100331.56;4991265;28;97504;-52
2022/03/30 10:12:27;;;;;;;1.20;0.60;;;;;;;11.16;50.09;100341.28;4991268;28;97193;-52
2022/03/30 10:14:54;;;;;;;6.10;0.83;;;;;;;11.37;49.66;100324.47;4990673;28;96997;-53
2022/03/30 10:17:20;;;;;;;1.50;0.80;;;;;;;11.51;49.35;100329.69;4994216;22;96981;-83
2022/03/30 10:19:46;;;;;;;3.90;1.00;;;;;;;11.55;49.15;100327.44;4979477;28;98934;-80
2022/03/30 10:22:31;;;;;;;1.10;0.40;;;;;;;11.67;49.01;100325.38;4983512;28;97625;-81
2022/03/30 10:25:02;;;;;;;3.60;0.80;;;;;;;11.85;48.27;100325.56;4991138;28;97187;-82
2022/03/30 10:28:05;;;;;;;2.57;0.93;;;;;;;11.97;46.82;100323.50;5003703;28;97069;-81
2022/03/30 10:30:32;;;;;;;0.93;0.70;;;;;;;12.07;48.12;100329.47;4980048;28;102073;-82
2022/03/30 10:32:59;;;;;;;3.53;0.80;;;;;;;12.04;48.07;100323.72;4985681;28;98844;-81
2022/03/30 10:35:48;;;;;;;4.10;0.80;;;;;;;12.14;47.09;100326.91;4989078;28;96704;-82
2022/03/30 10:38:16;;;;;;;2.90;0.73;;;;;;;12.22;47.90;100327.88;4985928;28;97166;-83
2022/03/30 10:40:42;;;;;;;2.60;0.60;;;;;;;12.20;47.76;100322.13;4986399;28;97732;-83
2022/03/30 10:43:09;;;;;;;2.97;0.60;;;;;;;12.28;46.95;100311.28;4983733;28;100345;-82
2022/03/30 10:45:42;;;;;;;2.67;0.73;;;;;;;12.28;46.01;100311.28;4986841;28;96971;-82
2022/03/30 10:48:09;;;;;;;2.60;0.53;;;;;;;12.26;47.08;100303.50;4986319;28;97355;-82
2022/03/30 10:50:36;;;;;;;2.43;0.50;;;;;;;12.29;46.98;100305.25;4984039;28;100039;-81
2022/03/30 10:53:02;;;;;;;2.23;0.50;;;;;;;12.33;46.40;100299.47;4987476;28;100052;-82
2022/03/30 10:55:30;;;;;;;4.30;0.80;;;;;;;12.27;46.18;100296.00;4984199;28;97076;-82
2022/03/30 10:57:58;;;;;;;1.00;0.67;;;;;;;12.28;46.68;100291.97;4986674;28;97081;-83
2022/03/30 11:00:27;;;;;;;1.40;0.60;;;;;;;12.36;46.39;100282.63;4980890;28;99696;-81
2022/03/30 11:03:26;;;;;;;2.57;0.70;;;;;;;12.56;45.31;100295.25;4987746;28;98808;-82
2022/03/30 11:06:01;;;;;;;0.70;0.50;;;;;;;12.71;45.21;100285.34;4988512;28;97440;-82
2022/03/30 11:08:32;;;;;;;2.87;0.70;;;;;;;12.82;44.76;100283.75;4980281;28;97231;-81
2022/03/30 11:11:00;;;;;;;2.27;0.70;;;;;;;12.90;45.37;100293.72;4985069;28;122478;-82
2022/03/30 11:13:26;;;;;;;1.47;0.73;;;;;;;12.93;45.70;100287.13;4987863;28;97260;-82
2022/03/30 11:16:00;;;;;;;0.87;0.63;;;;;;;13.03;45.16;100271.75;4985038;28;96979;-82
2022/03/30 11:18:28;;;;;;;2.43;0.70;;;;;;;13.02;45.36;100269.50;4961890;28;97640;-83
2022/03/30 11:21:09;;;;;;;1.43;0.60;;;;;;;13.05;42.77;100269.22;4979791;28;96874;-82
2022/03/30 11:23:53;;;;;;;1.10;0.97;;;;;;;13.01;43.00;100259.72;4978587;28;102140;-83
2022/03/30 11:26:23;;;;;;;1.50;0.70;;;;;;;13.09;45.08;100266.16;4985969;28;97199;-82
2022/03/30 11:28:48;;;;;;;2.00;0.60;;;;;;;13.15;45.06;100278.66;4986021;28;96876;-83
2022/03/30 11:31:21;;;;;;;1.97;0.40;;;;;;;13.11;42.66;100250.59;4975970;28;99350;-82
2022/03/30 11:34:24;;;;;;;3.30;2.30;;;;;;;13.20;40.35;100263.28;4975970;28;98366;-84
2022/03/30 11:36:50;;;;;;;3.43;1.10;;;;;;;13.11;44.39;100291.25;4980307;28;97147;-83
2022/03/30 11:39:21;;;;;;;1.57;0.80;;;;;;;13.09;43.17;100310.34;4989306;28;96913;-84